This is the latest recevied weather packets stored in our database for station/object KC9DK. If no packets are shown the sender has not sent any weather packets the latest 10 day(s).
| Time | Temp. | Humidity | Pressure | Rain* | Wind** | Luminosity | Snow |
|---|---|---|---|---|---|---|---|
| 1778349856 | 23.89° C | 58% | 1010.8 hPa | 0 mm | - | 905 W/m² | - |
| 1778349553 | 23.89° C | 62% | 1010.8 hPa | 0 mm | - | 893 W/m² | - |
| 1778349249 | 22.78° C | 63% | 1011.2 hPa | 0 mm | - | 907 W/m² | - |
| 1778348945 | 22.78° C | 60% | 1011.1 hPa | 0 mm | - | 903 W/m² | - |
| 1778348641 | 23.33° C | 57% | 1011.1 hPa | 0 mm | - | 908 W/m² | - |
| 1778348337 | 22.78° C | 64% | 1010.9 hPa | 0 mm | - | 911 W/m² | - |
| 1778348032 | 22.78° C | 61% | 1011 hPa | 0 mm | - | 912 W/m² | - |
| 1778347728 | 22.78° C | 59% | 1011.1 hPa | 0 mm | - | 903 W/m² | - |
| 1778347425 | 23.33° C | 59% | 1011.2 hPa | 0 mm | - | 903 W/m² | - |
| 1778347121 | 23.33° C | 59% | 1011.1 hPa | 0 mm | - | 897 W/m² | - |
| 1778346817 | 23.33° C | 60% | 1011.2 hPa | 0 mm | - | 902 W/m² | - |
| 1778346514 | 22.78° C | 60% | 1011.3 hPa | 0 mm | - | 894 W/m² | - |
| 1778346210 | 22.22° C | 60% | 1011.3 hPa | 0 mm | - | 890 W/m² | - |
| 1778345904 | 22.78° C | 59% | 1011.2 hPa | 0 mm | - | 888 W/m² | - |
| 1778345599 | 22.22° C | 59% | 1011.6 hPa | 0 mm | - | 885 W/m² | - |
| 1778345295 | 23.33° C | 55% | 1011.3 hPa | 0 mm | - | 887 W/m² | - |
| 1778344992 | 22.78° C | 64% | 1011.4 hPa | 0 mm | - | 876 W/m² | - |
| 1778344688 | 21.67° C | 67% | 1011.4 hPa | 0 mm | - | 862 W/m² | - |
| 1778344384 | 21.67° C | 60% | 1011.3 hPa | 0 mm | - | 866 W/m² | - |
| 1778344083 | 21.11° C | 63% | 1011.5 hPa | 0 mm | - | 856 W/m² | - |
| 1778343777 | 21.11° C | 65% | 1011.3 hPa | 0 mm | - | 839 W/m² | - |
| 1778343473 | 20.56° C | 69% | 1011.5 hPa | 0 mm | - | 871 W/m² | - |
| 1778343169 | 20.56° C | 63% | 1011.5 hPa | 0 mm | - | 892 W/m² | - |
| 1778342865 | 20.56° C | 65% | 1011.3 hPa | 0 mm | - | 289 W/m² | - |
| 1778342561 | 21.11° C | 63% | 1011.3 hPa | 0 mm | - | 284 W/m² | - |
* Rain latest hour (hover to see other rain measurements)
** Current wind speed in m/s (hover to see current wind gust speed)